sensor_id;sensor_type;location;lat;lon;timestamp;pressure;altitude;pressure_sealevel;temperature;humidity
75521;BME280;64102;48.628;9.002;2022-11-20T00:01:40;95541.25;;;3.15;88.14
75521;BME280;64102;48.628;9.002;2022-11-20T00:04:05;95538.09;;;3.11;87.59
75521;BME280;64102;48.628;9.002;2022-11-20T00:06:31;95544.72;;;3.14;87.96
75521;BME280;64102;48.628;9.002;2022-11-20T00:08:59;95542.59;;;3.08;87.44
75521;BME280;64102;48.628;9.002;2022-11-20T00:11:26;95543.28;;;3.10;87.61
75521;BME280;64102;48.628;9.002;2022-11-20T00:13:57;95544.34;;;3.07;88.14
75521;BME280;64102;48.628;9.002;2022-11-20T00:16:24;95537.69;;;3.05;87.39
75521;BME280;64102;48.628;9.002;2022-11-20T00:18:50;95541.97;;;3.04;88.13
75521;BME280;64102;48.628;9.002;2022-11-20T00:21:21;95538.84;;;3.01;87.63
75521;BME280;64102;48.628;9.002;2022-11-20T00:23:48;95537.31;;;2.98;88.45
75521;BME280;64102;48.628;9.002;2022-11-20T00:26:15;95531.28;;;2.99;88.17
75521;BME280;64102;48.628;9.002;2022-11-20T00:28:42;95535.91;;;2.94;88.46
75521;BME280;64102;48.628;9.002;2022-11-20T00:31:15;95537.22;;;2.87;88.17
75521;BME280;64102;48.628;9.002;2022-11-20T00:33:41;95544.78;;;2.89;88.82
75521;BME280;64102;48.628;9.002;2022-11-20T00:36:09;95538.28;;;2.85;88.66
75521;BME280;64102;48.628;9.002;2022-11-20T00:38:35;95543.56;;;2.82;89.10
75521;BME280;64102;48.628;9.002;2022-11-20T00:41:06;95541.41;;;2.88;88.72
75521;BME280;64102;48.628;9.002;2022-11-20T00:43:31;95540.59;;;2.88;88.79
75521;BME280;64102;48.628;9.002;2022-11-20T00:46:09;95533.56;;;2.91;88.16
75521;BME280;64102;48.628;9.002;2022-11-20T00:48:35;95537.97;;;2.89;88.10
75521;BME280;64102;48.628;9.002;2022-11-20T00:51:00;95538.66;;;2.91;87.91
75521;BME280;64102;48.628;9.002;2022-11-20T00:53:26;95539.69;;;2.89;88.54
75521;BME280;64102;48.628;9.002;2022-11-20T00:55:57;95546.81;;;2.84;88.41
75521;BME280;64102;48.628;9.002;2022-11-20T00:58:23;95546.31;;;2.79;89.00
75521;BME280;64102;48.628;9.002;2022-11-20T01:00:49;95544.91;;;2.75;89.02
75521;BME280;64102;48.628;9.002;2022-11-20T01:03:15;95549.41;;;2.71;89.06
75521;BME280;64102;48.628;9.002;2022-11-20T01:05:41;95557.97;;;2.70;88.97
75521;BME280;64102;48.628;9.002;2022-11-20T01:08:06;95559.00;;;2.67;89.07
75521;BME280;64102;48.628;9.002;2022-11-20T01:10:32;95560.22;;;2.62;89.03
75521;BME280;64102;48.628;9.002;2022-11-20T01:12:57;95553.69;;;2.58;89.45
75521;BME280;64102;48.628;9.002;2022-11-20T01:15:41;95557.47;;;2.52;90.22
75521;BME280;64102;48.628;9.002;2022-11-20T01:18:06;95553.09;;;2.54;89.86
75521;BME280;64102;48.628;9.002;2022-11-20T01:20:35;95551.16;;;2.45;89.99
75521;BME280;64102;48.628;9.002;2022-11-20T01:23:02;95551.78;;;2.49;90.53
75521;BME280;64102;48.628;9.002;2022-11-20T01:25:28;95558.88;;;2.56;90.18
75521;BME280;64102;48.628;9.002;2022-11-20T01:27:53;95566.00;;;2.64;89.55
75521;BME280;64102;48.628;9.002;2022-11-20T01:30:18;95561.84;;;2.63;89.44
75521;BME280;64102;48.628;9.002;2022-11-20T01:32:44;95565.53;;;2.59;90.19
75521;BME280;64102;48.628;9.002;2022-11-20T01:35:09;95560.53;;;2.57;90.10
75521;BME280;64102;48.628;9.002;2022-11-20T01:37:35;95565.19;;;2.51;90.17
75521;BME280;64102;48.628;9.002;2022-11-20T01:40:00;95564.50;;;2.49;90.92
75521;BME280;64102;48.628;9.002;2022-11-20T01:42:26;95567.44;;;2.43;90.34
75521;BME280;64102;48.628;9.002;2022-11-20T01:48:13;95555.53;;;2.43;91.38
75521;BME280;64102;48.628;9.002;2022-11-20T01:50:40;95562.88;;;2.48;91.66
75521;BME280;64102;48.628;9.002;2022-11-20T01:53:08;95564.50;;;2.49;91.26
75521;BME280;64102;48.628;9.002;2022-11-20T01:55:39;95559.81;;;2.43;92.02
75521;BME280;64102;48.628;9.002;2022-11-20T01:58:06;95563.47;;;2.51;91.93
75521;BME280;64102;48.628;9.002;2022-11-20T02:00:31;95569.47;;;2.50;91.60
75521;BME280;64102;48.628;9.002;2022-11-20T02:03:03;95562.78;;;2.49;91.51
75521;BME280;64102;48.628;9.002;2022-11-20T02:05:47;95567.97;;;2.48;91.67
75521;BME280;64102;48.628;9.002;2022-11-20T02:08:15;95567.13;;;2.47;91.94
75521;BME280;64102;48.628;9.002;2022-11-20T02:10:40;95558.59;;;2.48;91.58
75521;BME280;64102;48.628;9.002;2022-11-20T02:13:06;95564.19;;;2.53;92.36
75521;BME280;64102;48.628;9.002;2022-11-20T02:15:50;95560.00;;;2.52;91.63
75521;BME280;64102;48.628;9.002;2022-11-20T02:18:18;95560.31;;;2.48;92.24
75521;BME280;64102;48.628;9.002;2022-11-20T02:20:46;95560.63;;;2.43;91.81
75521;BME280;64102;48.628;9.002;2022-11-20T02:23:18;95565.72;;;2.43;92.55
75521;BME280;64102;48.628;9.002;2022-11-20T02:25:47;95563.69;;;2.48;91.85
75521;BME280;64102;48.628;9.002;2022-11-20T02:28:13;95560.84;;;2.40;92.60
75521;BME280;64102;48.628;9.002;2022-11-20T02:30:38;95558.91;;;2.31;92.05
75521;BME280;64102;48.628;9.002;2022-11-20T02:33:04;95562.56;;;2.27;92.33
75521;BME280;64102;48.628;9.002;2022-11-20T02:37:56;95556.06;;;2.36;92.42
75521;BME280;64102;48.628;9.002;2022-11-20T02:40:23;95550.22;;;2.34;92.80
75521;BME280;64102;48.628;9.002;2022-11-20T02:42:55;95554.41;;;2.35;92.50
75521;BME280;64102;48.628;9.002;2022-11-20T02:45:21;95547.47;;;2.37;92.41
75521;BME280;64102;48.628;9.002;2022-11-20T02:47:47;95549.03;;;2.39;92.21
75521;BME280;64102;48.628;9.002;2022-11-20T02:50:13;95558.91;;;2.44;91.94
75521;BME280;64102;48.628;9.002;2022-11-20T02:52:38;95557.25;;;2.43;92.27
75521;BME280;64102;48.628;9.002;2022-11-20T02:55:04;95550.22;;;2.46;91.33
75521;BME280;64102;48.628;9.002;2022-11-20T02:57:29;95550.03;;;2.49;91.29
75521;BME280;64102;48.628;9.002;2022-11-20T02:59:54;95545.75;;;2.50;91.29
75521;BME280;64102;48.628;9.002;2022-11-20T03:02:21;95549.22;;;2.49;91.18
75521;BME280;64102;48.628;9.002;2022-11-20T03:04:46;95547.28;;;2.52;91.15
75521;BME280;64102;48.628;9.002;2022-11-20T03:07:11;95554.09;;;2.52;90.44
75521;BME280;64102;48.628;9.002;2022-11-20T03:09:37;95550.84;;;2.50;91.04
75521;BME280;64102;48.628;9.002;2022-11-20T03:12:02;95547.50;;;2.49;90.52
75521;BME280;64102;48.628;9.002;2022-11-20T03:14:28;95541.69;;;2.47;91.08
75521;BME280;64102;48.628;9.002;2022-11-20T03:16:53;95553.81;;;2.44;90.73
75521;BME280;64102;48.628;9.002;2022-11-20T03:19:18;95559.81;;;2.43;90.93
75521;BME280;64102;48.628;9.002;2022-11-20T03:21:44;95552.06;;;2.44;90.56
75521;BME280;64102;48.628;9.002;2022-11-20T03:24:09;95554.09;;;2.39;90.69
75521;BME280;64102;48.628;9.002;2022-11-20T03:26:35;95552.69;;;2.35;90.95
75521;BME280;64102;48.628;9.002;2022-11-20T03:29:02;95553.00;;;2.31;90.82
75521;BME280;64102;48.628;9.002;2022-11-20T03:31:31;95548.28;;;2.24;90.94
75521;BME280;64102;48.628;9.002;2022-11-20T03:33:58;95545.88;;;2.23;91.08
75521;BME280;64102;48.628;9.002;2022-11-20T03:36:26;95548.13;;;2.28;90.78
75521;BME280;64102;48.628;9.002;2022-11-20T03:38:53;95555.63;;;2.29;91.21
75521;BME280;64102;48.628;9.002;2022-11-20T03:41:27;95556.06;;;2.23;90.62
75521;BME280;64102;48.628;9.002;2022-11-20T03:44:00;95547.91;;;2.18;91.72
75521;BME280;64102;48.628;9.002;2022-11-20T03:46:27;95545.13;;;2.08;91.78
75521;BME280;64102;48.628;9.002;2022-11-20T03:48:53;95539.03;;;2.11;91.99
75521;BME280;64102;48.628;9.002;2022-11-20T03:51:20;95542.00;;;2.05;91.94
75521;BME280;64102;48.628;9.002;2022-11-20T03:53:47;95543.94;;;2.14;91.98
75521;BME280;64102;48.628;9.002;2022-11-20T03:56:14;95545.34;;;2.18;91.51
75521;BME280;64102;48.628;9.002;2022-11-20T03:58:40;95542.91;;;2.16;91.64
75521;BME280;64102;48.628;9.002;2022-11-20T04:01:14;95546.19;;;2.18;91.44
75521;BME280;64102;48.628;9.002;2022-11-20T04:03:41;95552.47;;;2.25;91.50
75521;BME280;64102;48.628;9.002;2022-11-20T04:06:19;95551.56;;;2.39;91.56
75521;BME280;64102;48.628;9.002;2022-11-20T04:08:44;95551.66;;;2.50;90.49
75521;BME280;64102;48.628;9.002;2022-11-20T04:11:30;95544.03;;;2.63;89.80
75521;BME280;64102;48.628;9.002;2022-11-20T04:13:58;95545.53;;;2.65;89.60
75521;BME280;64102;48.628;9.002;2022-11-20T04:16:25;95548.69;;;2.69;89.62
75521;BME280;64102;48.628;9.002;2022-11-20T04:18:52;95536.66;;;2.71;89.47
75521;BME280;64102;48.628;9.002;2022-11-20T04:21:18;95534.72;;;2.75;89.80
75521;BME280;64102;48.628;9.002;2022-11-20T04:23:43;95538.09;;;2.75;89.87
75521;BME280;64102;48.628;9.002;2022-11-20T04:26:10;95541.00;;;2.82;89.08
75521;BME280;64102;48.628;9.002;2022-11-20T04:28:37;95537.22;;;2.87;89.03
75521;BME280;64102;48.628;9.002;2022-11-20T04:31:07;95533.78;;;2.88;88.81
75521;BME280;64102;48.628;9.002;2022-11-20T04:33:34;95523.09;;;2.83;88.95
75521;BME280;64102;48.628;9.002;2022-11-20T04:36:05;95534.09;;;2.84;88.99
75521;BME280;64102;48.628;9.002;2022-11-20T04:38:31;95537.97;;;2.89;88.32
75521;BME280;64102;48.628;9.002;2022-11-20T04:40:59;95531.72;;;2.93;88.54
75521;BME280;64102;48.628;9.002;2022-11-20T04:43:25;95525.72;;;2.94;88.12
75521;BME280;64102;48.628;9.002;2022-11-20T04:45:51;95523.25;;;2.93;89.03
75521;BME280;64102;48.628;9.002;2022-11-20T04:48:17;95527.53;;;2.92;88.63
75521;BME280;64102;48.628;9.002;2022-11-20T04:50:42;95524.91;;;2.94;88.61
75521;BME280;64102;48.628;9.002;2022-11-20T04:53:07;95521.63;;;2.92;88.26
75521;BME280;64102;48.628;9.002;2022-11-20T04:55:33;95536.00;;;2.93;88.66
75521;BME280;64102;48.628;9.002;2022-11-20T04:57:58;95526.50;;;2.95;87.96
75521;BME280;64102;48.628;9.002;2022-11-20T05:00:24;95530.00;;;2.94;87.84
75521;BME280;64102;48.628;9.002;2022-11-20T05:02:49;95531.72;;;2.93;88.10
75521;BME280;64102;48.628;9.002;2022-11-20T05:05:14;95528.97;;;2.96;88.20
75521;BME280;64102;48.628;9.002;2022-11-20T05:07:40;95530.69;;;2.96;88.63
75521;BME280;64102;48.628;9.002;2022-11-20T05:10:05;95524.69;;;2.97;88.66
75521;BME280;64102;48.628;9.002;2022-11-20T05:12:31;95520.19;;;3.00;87.80
75521;BME280;64102;48.628;9.002;2022-11-20T05:14:57;95516.81;;;3.00;88.16
75521;BME280;64102;48.628;9.002;2022-11-20T05:17:23;95519.97;;;3.03;87.67
75521;BME280;64102;48.628;9.002;2022-11-20T05:19:48;95520.44;;;3.08;87.11
75521;BME280;64102;48.628;9.002;2022-11-20T05:22:13;95525.88;;;3.04;88.01
75521;BME280;64102;48.628;9.002;2022-11-20T05:24:39;95525.41;;;2.99;87.65
75521;BME280;64102;48.628;9.002;2022-11-20T05:27:04;95521.41;;;2.95;87.62
75521;BME280;64102;48.628;9.002;2022-11-20T05:29:29;95529.28;;;2.92;87.86
75521;BME280;64102;48.628;9.002;2022-11-20T05:31:55;95526.72;;;2.92;88.27
75521;BME280;64102;48.628;9.002;2022-11-20T05:34:20;95530.41;;;2.88;88.18
75521;BME280;64102;48.628;9.002;2022-11-20T05:36:45;95526.94;;;2.89;88.28
75521;BME280;64102;48.628;9.002;2022-11-20T05:39:11;95528.78;;;2.87;88.60
75521;BME280;64102;48.628;9.002;2022-11-20T05:41:36;95525.31;;;2.88;88.47
75521;BME280;64102;48.628;9.002;2022-11-20T05:44:01;95526.34;;;2.85;88.96
75521;BME280;64102;48.628;9.002;2022-11-20T05:46:27;95531.53;;;2.84;88.41
75521;BME280;64102;48.628;9.002;2022-11-20T05:48:52;95524.50;;;2.87;88.25
75521;BME280;64102;48.628;9.002;2022-11-20T05:51:19;95528.78;;;2.87;88.76
75521;BME280;64102;48.628;9.002;2022-11-20T05:53:45;95521.13;;;2.87;88.70
75521;BME280;64102;48.628;9.002;2022-11-20T05:56:13;95530.19;;;2.91;88.38
75521;BME280;64102;48.628;9.002;2022-11-20T05:58:39;95525.50;;;2.97;87.83
75521;BME280;64102;48.628;9.002;2022-11-20T06:01:19;95526.09;;;3.01;87.95
75521;BME280;64102;48.628;9.002;2022-11-20T06:03:46;95532.81;;;3.02;87.57
75521;BME280;64102;48.628;9.002;2022-11-20T06:06:16;95529.47;;;3.01;87.51
75521;BME280;64102;48.628;9.002;2022-11-20T06:08:42;95529.69;;;2.98;87.71
75521;BME280;64102;48.628;9.002;2022-11-20T06:11:09;95527.31;;;2.95;88.02
75521;BME280;64102;48.628;9.002;2022-11-20T06:13:35;95528.13;;;2.96;87.75
75521;BME280;64102;48.628;9.002;2022-11-20T06:16:01;95530.38;;;3.00;88.14
75521;BME280;64102;48.628;9.002;2022-11-20T06:18:27;95528.88;;;2.98;87.78
75521;BME280;64102;48.628;9.002;2022-11-20T06:23:36;95522.63;;;3.02;87.26
75521;BME280;64102;48.628;9.002;2022-11-20T06:26:13;95526.09;;;3.01;87.68
75521;BME280;64102;48.628;9.002;2022-11-20T06:28:39;95523.22;;;3.05;87.57
75521;BME280;64102;48.628;9.002;2022-11-20T06:31:05;95525.88;;;3.04;87.29
75521;BME280;64102;48.628;9.002;2022-11-20T06:33:32;95512.94;;;3.07;87.49
75521;BME280;64102;48.628;9.002;2022-11-20T06:36:01;95512.03;;;3.08;87.50
75521;BME280;64102;48.628;9.002;2022-11-20T06:38:27;95521.16;;;3.10;86.91
75521;BME280;64102;48.628;9.002;2022-11-20T06:40:53;95519.44;;;3.11;86.96
75521;BME280;64102;48.628;9.002;2022-11-20T06:43:18;95530.56;;;3.10;87.69
75521;BME280;64102;48.628;9.002;2022-11-20T06:45:43;95525.13;;;3.14;87.43
75521;BME280;64102;48.628;9.002;2022-11-20T06:48:09;95524.09;;;3.17;87.32
75521;BME280;64102;48.628;9.002;2022-11-20T06:50:36;95524.00;;;3.19;86.95
75521;BME280;64102;48.628;9.002;2022-11-20T06:53:03;95523.19;;;3.18;87.27
75521;BME280;64102;48.628;9.002;2022-11-20T06:55:30;95529.00;;;3.20;87.09
75521;BME280;64102;48.628;9.002;2022-11-20T06:57:56;95520.63;;;3.18;87.22
75521;BME280;64102;48.628;9.002;2022-11-20T07:00:22;95527.94;;;3.23;87.06
75521;BME280;64102;48.628;9.002;2022-11-20T07:02:47;95526.00;;;3.26;86.69
75521;BME280;64102;48.628;9.002;2022-11-20T07:05:13;95536.69;;;3.31;86.73
75521;BME280;64102;48.628;9.002;2022-11-20T07:07:38;95533.22;;;3.32;86.88
75521;BME280;64102;48.628;9.002;2022-11-20T07:10:04;95535.53;;;3.35;86.78
75521;BME280;64102;48.628;9.002;2022-11-20T07:12:29;95545.75;;;3.35;87.16
75521;BME280;64102;48.628;9.002;2022-11-20T07:14:55;95546.69;;;3.34;87.31
75521;BME280;64102;48.628;9.002;2022-11-20T07:17:20;95549.84;;;3.38;86.92
75521;BME280;64102;48.628;9.002;2022-11-20T07:19:46;95549.38;;;3.44;86.49
75521;BME280;64102;48.628;9.002;2022-11-20T07:22:11;95550.00;;;3.47;87.02
75521;BME280;64102;48.628;9.002;2022-11-20T07:24:36;95552.09;;;3.53;86.70
75521;BME280;64102;48.628;9.002;2022-11-20T07:27:02;95551.28;;;3.53;86.87
75521;BME280;64102;48.628;9.002;2022-11-20T07:29:27;95548.63;;;3.54;85.99
75521;BME280;64102;48.628;9.002;2022-11-20T07:31:53;95551.91;;;3.56;85.99
75521;BME280;64102;48.628;9.002;2022-11-20T07:34:20;95541.25;;;3.63;85.50
75521;BME280;64102;48.628;9.002;2022-11-20T07:36:46;95555.41;;;3.67;85.37
75521;BME280;64102;48.628;9.002;2022-11-20T07:39:11;95554.25;;;3.71;85.49
75521;BME280;64102;48.628;9.002;2022-11-20T07:41:36;95556.59;;;3.74;86.01
75521;BME280;64102;48.628;9.002;2022-11-20T07:44:02;95553.94;;;3.75;85.82
75521;BME280;64102;48.628;9.002;2022-11-20T07:46:27;95556.53;;;3.86;85.27
75521;BME280;64102;48.628;9.002;2022-11-20T07:48:52;95548.78;;;3.88;85.06
75521;BME280;64102;48.628;9.002;2022-11-20T07:51:18;95544.81;;;3.84;85.80
75521;BME280;64102;48.628;9.002;2022-11-20T07:53:43;95543.38;;;3.80;85.49
75521;BME280;64102;48.628;9.002;2022-11-20T07:56:08;95553.50;;;3.81;86.20
75521;BME280;64102;48.628;9.002;2022-11-20T07:58:34;95553.50;;;3.81;86.03
75521;BME280;64102;48.628;9.002;2022-11-20T08:01:06;95555.94;;;3.83;86.64
75521;BME280;64102;48.628;9.002;2022-11-20T08:03:32;95563.38;;;3.86;85.84
75521;BME280;64102;48.628;9.002;2022-11-20T08:06:01;95563.28;;;3.87;86.54
75521;BME280;64102;48.628;9.002;2022-11-20T08:08:27;95574.22;;;4.00;86.09
75521;BME280;64102;48.628;9.002;2022-11-20T08:10:53;95573.44;;;4.11;85.85
75521;BME280;64102;48.628;9.002;2022-11-20T08:13:38;95570.56;;;4.27;85.62
75521;BME280;64102;48.628;9.002;2022-11-20T08:16:22;95564.66;;;4.26;86.53
75521;BME280;64102;48.628;9.002;2022-11-20T08:18:47;95569.66;;;4.28;87.34
75521;BME280;64102;48.628;9.002;2022-11-20T08:21:12;95578.91;;;4.29;88.44
75521;BME280;64102;48.628;9.002;2022-11-20T08:23:38;95576.16;;;4.32;86.85
75521;BME280;64102;48.628;9.002;2022-11-20T08:26:03;95578.59;;;4.33;87.13
75521;BME280;64102;48.628;9.002;2022-11-20T08:28:29;95580.69;;;4.39;86.51
75521;BME280;64102;48.628;9.002;2022-11-20T08:31:01;95586.88;;;4.48;87.16
75521;BME280;64102;48.628;9.002;2022-11-20T08:33:27;95584.69;;;4.55;86.19
75521;BME280;64102;48.628;9.002;2022-11-20T08:35:53;95579.34;;;4.58;85.73
75521;BME280;64102;48.628;9.002;2022-11-20T08:38:18;95582.38;;;4.63;85.36
75521;BME280;64102;48.628;9.002;2022-11-20T08:40:43;95582.69;;;4.69;86.07
75521;BME280;64102;48.628;9.002;2022-11-20T08:43:32;95592.34;;;4.66;85.21
75521;BME280;64102;48.628;9.002;2022-11-20T08:45:57;95589.81;;;4.77;85.00
75521;BME280;64102;48.628;9.002;2022-11-20T08:48:22;95584.34;;;4.81;84.41
75521;BME280;64102;48.628;9.002;2022-11-20T08:50:48;95589.34;;;4.94;84.68
75521;BME280;64102;48.628;9.002;2022-11-20T08:53:13;95593.88;;;5.02;82.97
75521;BME280;64102;48.628;9.002;2022-11-20T08:55:39;95604.94;;;5.13;83.20
75521;BME280;64102;48.628;9.002;2022-11-20T08:58:05;95597.59;;;5.20;83.44
75521;BME280;64102;48.628;9.002;2022-11-20T09:00:31;95588.63;;;5.14;83.88
75521;BME280;64102;48.628;9.002;2022-11-20T09:02:57;95598.66;;;5.17;83.96
75521;BME280;64102;48.628;9.002;2022-11-20T09:05:24;95599.22;;;5.21;83.57
75521;BME280;64102;48.628;9.002;2022-11-20T09:07:49;95601.31;;;5.16;83.31
75521;BME280;64102;48.628;9.002;2022-11-20T09:10:14;95600.13;;;5.20;83.38
75521;BME280;64102;48.628;9.002;2022-11-20T09:12:40;95601.31;;;5.16;83.30
75521;BME280;64102;48.628;9.002;2022-11-20T09:15:05;95600.03;;;5.10;84.15
75521;BME280;64102;48.628;9.002;2022-11-20T09:17:31;95611.88;;;5.00;84.53
75521;BME280;64102;48.628;9.002;2022-11-20T09:19:56;95614.78;;;4.95;85.15
75521;BME280;64102;48.628;9.002;2022-11-20T09:22:22;95611.78;;;5.02;85.02
75521;BME280;64102;48.628;9.002;2022-11-20T09:24:47;95612.81;;;5.10;85.26
75521;BME280;64102;48.628;9.002;2022-11-20T09:27:12;95623.19;;;5.09;85.97
75521;BME280;64102;48.628;9.002;2022-11-20T09:29:38;95616.63;;;5.05;85.35
75521;BME280;64102;48.628;9.002;2022-11-20T09:32:03;95628.28;;;4.97;85.74
75521;BME280;64102;48.628;9.002;2022-11-20T09:34:29;95629.78;;;4.89;85.49
75521;BME280;64102;48.628;9.002;2022-11-20T09:36:54;95631.88;;;4.84;85.66
75521;BME280;64102;48.628;9.002;2022-11-20T09:39:19;95628.16;;;4.77;85.60
75521;BME280;64102;48.628;9.002;2022-11-20T09:45:16;95627.13;;;4.90;85.78
75521;BME280;64102;48.628;9.002;2022-11-20T09:50:32;95634.19;;;4.98;85.00
75521;BME280;64102;48.628;9.002;2022-11-20T09:55:40;95631.63;;;5.09;84.72
75521;BME280;64102;48.628;9.002;2022-11-20T09:58:07;95622.47;;;5.07;84.54
75521;BME280;64102;48.628;9.002;2022-11-20T10:00:35;95631.53;;;5.00;84.57
75521;BME280;64102;48.628;9.002;2022-11-20T10:03:06;95622.56;;;5.05;84.80
75521;BME280;64102;48.628;9.002;2022-11-20T10:05:42;95626.31;;;5.12;84.47
75521;BME280;64102;48.628;9.002;2022-11-20T10:08:25;95619.09;;;5.28;84.87
75521;BME280;64102;48.628;9.002;2022-11-20T10:11:04;95622.81;;;5.35;85.75
75521;BME280;64102;48.628;9.002;2022-11-20T10:16:42;95634.88;;;5.22;84.74
75521;BME280;64102;48.628;9.002;2022-11-20T10:22:01;95636.88;;;5.19;85.21
75521;BME280;64102;48.628;9.002;2022-11-20T10:25:04;95632.91;;;5.15;86.73
75521;BME280;64102;48.628;9.002;2022-11-20T10:30:28;95620.13;;;5.15;87.24
75521;BME280;64102;48.628;9.002;2022-11-20T10:33:03;95620.59;;;5.20;87.12
75521;BME280;64102;48.628;9.002;2022-11-20T10:40:18;95622.34;;;5.30;85.25
75521;BME280;64102;48.628;9.002;2022-11-20T10:42:16;95623.16;;;5.31;85.12
75521;BME280;64102;48.628;9.002;2022-11-20T10:44:49;95617.19;;;5.41;85.36
75521;BME280;64102;48.628;9.002;2022-11-20T10:47:27;95617.41;;;5.61;85.08
75521;BME280;64102;48.628;9.002;2022-11-20T10:49:56;95617.69;;;5.90;83.73
75521;BME280;64102;48.628;9.002;2022-11-20T11:00:09;95616.13;;;7.32;77.24
75521;BME280;64102;48.628;9.002;2022-11-20T11:02:54;95619.53;;;7.02;77.41
75521;BME280;64102;48.628;9.002;2022-11-20T11:07:46;95614.13;;;7.05;77.60
75521;BME280;64102;48.628;9.002;2022-11-20T11:13:07;95598.66;;;7.16;75.54
75521;BME280;64102;48.628;9.002;2022-11-20T11:15:40;95603.25;;;7.13;76.41
75521;BME280;64102;48.628;9.002;2022-11-20T11:18:09;95590.16;;;7.16;76.65
75521;BME280;64102;48.628;9.002;2022-11-20T11:20:35;95586.06;;;7.04;76.56
75521;BME280;64102;48.628;9.002;2022-11-20T11:23:01;95591.91;;;7.15;76.31
75521;BME280;64102;48.628;9.002;2022-11-20T11:25:31;95584.22;;;7.15;76.98
75521;BME280;64102;48.628;9.002;2022-11-20T11:30:43;95575.06;;;7.32;76.01
75521;BME280;64102;48.628;9.002;2022-11-20T11:33:11;95577.13;;;7.38;73.71
75521;BME280;64102;48.628;9.002;2022-11-20T11:35:46;95566.50;;;8.95;66.52
75521;BME280;64102;48.628;9.002;2022-11-20T11:38:36;95567.41;;;8.57;67.88
75521;BME280;64102;48.628;9.002;2022-11-20T11:41:04;95564.91;;;7.80;71.11
75521;BME280;64102;48.628;9.002;2022-11-20T11:43:35;95566.47;;;7.43;72.38
75521;BME280;64102;48.628;9.002;2022-11-20T11:51:39;95557.69;;;6.96;70.47
75521;BME280;64102;48.628;9.002;2022-11-20T11:54:15;95548.47;;;6.93;71.21
75521;BME280;64102;48.628;9.002;2022-11-20T11:56:43;95542.44;;;6.64;72.39
75521;BME280;64102;48.628;9.002;2022-11-20T11:59:13;95543.72;;;8.63;64.42
75521;BME280;64102;48.628;9.002;2022-11-20T12:01:47;95548.94;;;7.57;66.68
75521;BME280;64102;48.628;9.002;2022-11-20T12:04:21;95548.34;;;7.35;67.48
75521;BME280;64102;48.628;9.002;2022-11-20T12:06:56;95547.72;;;6.72;69.36
75521;BME280;64102;48.628;9.002;2022-11-20T12:09:33;95546.41;;;6.47;71.08
75521;BME280;64102;48.628;9.002;2022-11-20T12:12:11;95549.72;;;6.38;70.69
75521;BME280;64102;48.628;9.002;2022-11-20T12:14:41;95547.72;;;6.42;70.10
75521;BME280;64102;48.628;9.002;2022-11-20T12:17:12;95539.34;;;6.70;70.33
75521;BME280;64102;48.628;9.002;2022-11-20T12:19:38;95541.28;;;6.78;69.38
75521;BME280;64102;48.628;9.002;2022-11-20T12:30:19;95517.34;;;11.83;52.11
75521;BME280;64102;48.628;9.002;2022-11-20T12:50:27;95516.06;;;12.20;50.10
75521;BME280;64102;48.628;9.002;2022-11-20T12:53:03;95516.88;;;11.88;50.50
75521;BME280;64102;48.628;9.002;2022-11-20T12:55:50;95525.13;;;11.99;50.10
75521;BME280;64102;48.628;9.002;2022-11-20T13:01:08;95520.84;;;12.87;47.89
75521;BME280;64102;48.628;9.002;2022-11-20T13:04:07;95523.84;;;11.87;51.14
75521;BME280;64102;48.628;9.002;2022-11-20T13:06:34;95527.00;;;11.07;53.51
75521;BME280;64102;48.628;9.002;2022-11-20T13:09:00;95519.63;;;11.94;50.76
75521;BME280;64102;48.628;9.002;2022-11-20T13:14:50;95523.91;;;11.53;50.74
75521;BME280;64102;48.628;9.002;2022-11-20T13:19:54;95517.94;;;10.43;53.26
75521;BME280;64102;48.628;9.002;2022-11-20T13:22:28;95508.75;;;10.05;53.93
75521;BME280;64102;48.628;9.002;2022-11-20T13:24:54;95506.25;;;9.96;53.41
75521;BME280;64102;48.628;9.002;2022-11-20T13:27:23;95511.56;;;8.86;56.31
75521;BME280;64102;48.628;9.002;2022-11-20T13:30:01;95516.88;;;8.09;58.83
75521;BME280;64102;48.628;9.002;2022-11-20T13:32:27;95513.50;;;7.51;59.79
75521;BME280;64102;48.628;9.002;2022-11-20T13:35:03;95509.44;;;7.39;62.46
75521;BME280;64102;48.628;9.002;2022-11-20T13:37:30;95501.19;;;7.26;63.92
75521;BME280;64102;48.628;9.002;2022-11-20T13:42:35;95501.66;;;6.91;67.63
75521;BME280;64102;48.628;9.002;2022-11-20T13:45:02;95503.63;;;6.78;68.44
75521;BME280;64102;48.628;9.002;2022-11-20T13:47:34;95501.25;;;6.96;67.50
75521;BME280;64102;48.628;9.002;2022-11-20T13:50:03;95504.91;;;7.03;65.87
75521;BME280;64102;48.628;9.002;2022-11-20T13:55:36;95503.25;;;6.52;68.11
75521;BME280;64102;48.628;9.002;2022-11-20T13:58:26;95505.84;;;6.32;69.28
75521;BME280;64102;48.628;9.002;2022-11-20T14:01:05;95495.47;;;6.12;69.92
75521;BME280;64102;48.628;9.002;2022-11-20T14:03:34;95498.22;;;6.00;70.84
75521;BME280;64102;48.628;9.002;2022-11-20T14:06:03;95496.88;;;5.96;70.32
75521;BME280;64102;48.628;9.002;2022-11-20T14:08:43;95501.44;;;5.92;71.32
75521;BME280;64102;48.628;9.002;2022-11-20T14:11:19;95495.38;;;5.93;70.98
75521;BME280;64102;48.628;9.002;2022-11-20T14:14:24;95499.31;;;5.86;72.20
75521;BME280;64102;48.628;9.002;2022-11-20T14:16:49;95498.66;;;5.84;72.68
75521;BME280;64102;48.628;9.002;2022-11-20T14:22:10;95486.69;;;5.73;73.29
75521;BME280;64102;48.628;9.002;2022-11-20T14:24:39;95486.91;;;5.50;73.59
75521;BME280;64102;48.628;9.002;2022-11-20T14:27:04;95496.13;;;5.41;74.79
75521;BME280;64102;48.628;9.002;2022-11-20T14:29:37;95494.44;;;5.30;74.60
75521;BME280;64102;48.628;9.002;2022-11-20T14:32:04;95492.91;;;5.28;74.92
75521;BME280;64102;48.628;9.002;2022-11-20T14:34:32;95497.47;;;5.24;74.64
75521;BME280;64102;48.628;9.002;2022-11-20T14:37:00;95492.34;;;5.24;74.78
75521;BME280;64102;48.628;9.002;2022-11-20T14:39:36;95488.41;;;5.20;75.24
75521;BME280;64102;48.628;9.002;2022-11-20T14:42:03;95479.13;;;5.19;75.65
75521;BME280;64102;48.628;9.002;2022-11-20T14:44:32;95478.28;;;5.19;75.87
75521;BME280;64102;48.628;9.002;2022-11-20T14:47:00;95480.28;;;5.15;76.22
75521;BME280;64102;48.628;9.002;2022-11-20T14:49:29;95473.59;;;5.03;78.50
75521;BME280;64102;48.628;9.002;2022-11-20T14:52:22;95466.75;;;4.92;79.22